sensor_id;sensor_type;location;lat;lon;timestamp;P1;durP1;ratioP1;P2;durP2;ratioP2
15706;SDS011;7953;54.302;10.128;2023-06-05T00:02:14;4.97;;;4.20;;
15706;SDS011;7953;54.302;10.128;2023-06-05T00:04:42;7.53;;;3.77;;
15706;SDS011;7953;54.302;10.128;2023-06-05T00:07:09;4.40;;;3.27;;
15706;SDS011;7953;54.302;10.128;2023-06-05T00:09:36;4.73;;;3.83;;
15706;SDS011;7953;54.302;10.128;2023-06-05T00:12:04;7.53;;;3.90;;
15706;SDS011;7953;54.302;10.128;2023-06-05T00:14:32;4.87;;;3.60;;
15706;SDS011;7953;54.302;10.128;2023-06-05T00:16:58;5.20;;;3.90;;
15706;SDS011;7953;54.302;10.128;2023-06-05T00:19:25;6.13;;;3.90;;
15706;SDS011;7953;54.302;10.128;2023-06-05T00:21:52;4.57;;;3.83;;
15706;SDS011;7953;54.302;10.128;2023-06-05T00:24:19;6.30;;;3.73;;
15706;SDS011;7953;54.302;10.128;2023-06-05T00:26:46;4.77;;;4.10;;
15706;SDS011;7953;54.302;10.128;2023-06-05T00:29:14;5.00;;;3.90;;
15706;SDS011;7953;54.302;10.128;2023-06-05T00:31:42;6.40;;;4.17;;
15706;SDS011;7953;54.302;10.128;2023-06-05T00:34:08;5.87;;;4.07;;
15706;SDS011;7953;54.302;10.128;2023-06-05T00:36:35;4.80;;;3.70;;
15706;SDS011;7953;54.302;10.128;2023-06-05T00:39:05;5.10;;;3.70;;
15706;SDS011;7953;54.302;10.128;2023-06-05T00:41:34;6.90;;;5.00;;
15706;SDS011;7953;54.302;10.128;2023-06-05T00:44:02;6.53;;;3.60;;
15706;SDS011;7953;54.302;10.128;2023-06-05T00:46:30;6.60;;;4.07;;
15706;SDS011;7953;54.302;10.128;2023-06-05T00:48:57;6.30;;;4.47;;
15706;SDS011;7953;54.302;10.128;2023-06-05T00:51:24;4.97;;;4.13;;
15706;SDS011;7953;54.302;10.128;2023-06-05T00:53:51;5.60;;;3.70;;
15706;SDS011;7953;54.302;10.128;2023-06-05T00:56:18;6.40;;;4.47;;
15706;SDS011;7953;54.302;10.128;2023-06-05T00:58:46;5.23;;;4.43;;
15706;SDS011;7953;54.302;10.128;2023-06-05T01:01:13;5.00;;;4.20;;
15706;SDS011;7953;54.302;10.128;2023-06-05T01:03:43;6.50;;;4.43;;
15706;SDS011;7953;54.302;10.128;2023-06-05T01:06:12;5.93;;;3.97;;
15706;SDS011;7953;54.302;10.128;2023-06-05T01:08:45;5.00;;;3.97;;
15706;SDS011;7953;54.302;10.128;2023-06-05T01:11:13;6.03;;;4.30;;
15706;SDS011;7953;54.302;10.128;2023-06-05T01:13:49;4.50;;;4.10;;
15706;SDS011;7953;54.302;10.128;2023-06-05T01:16:21;4.47;;;4.00;;
15706;SDS011;7953;54.302;10.128;2023-06-05T01:18:57;5.63;;;4.17;;
15706;SDS011;7953;54.302;10.128;2023-06-05T01:21:27;5.00;;;3.97;;
15706;SDS011;7953;54.302;10.128;2023-06-05T01:23:56;4.40;;;4.00;;
15706;SDS011;7953;54.302;10.128;2023-06-05T01:26:24;4.53;;;4.13;;
15706;SDS011;7953;54.302;10.128;2023-06-05T01:28:58;4.87;;;3.97;;
15706;SDS011;7953;54.302;10.128;2023-06-05T01:31:27;5.10;;;4.03;;
15706;SDS011;7953;54.302;10.128;2023-06-05T01:34:02;4.30;;;3.90;;
15706;SDS011;7953;54.302;10.128;2023-06-05T01:36:32;4.60;;;3.93;;
15706;SDS011;7953;54.302;10.128;2023-06-05T01:39:01;5.43;;;4.17;;
15706;SDS011;7953;54.302;10.128;2023-06-05T01:41:29;4.83;;;4.20;;
15706;SDS011;7953;54.302;10.128;2023-06-05T01:43:56;5.80;;;5.03;;
15706;SDS011;7953;54.302;10.128;2023-06-05T01:46:24;4.87;;;4.37;;
15706;SDS011;7953;54.302;10.128;2023-06-05T01:48:51;6.33;;;4.50;;
15706;SDS011;7953;54.302;10.128;2023-06-05T01:51:19;5.70;;;4.63;;
15706;SDS011;7953;54.302;10.128;2023-06-05T01:53:46;5.93;;;4.73;;
15706;SDS011;7953;54.302;10.128;2023-06-05T01:56:15;6.53;;;4.77;;
15706;SDS011;7953;54.302;10.128;2023-06-05T01:58:44;6.67;;;4.90;;
15706;SDS011;7953;54.302;10.128;2023-06-05T02:01:12;4.97;;;4.53;;
15706;SDS011;7953;54.302;10.128;2023-06-05T02:03:40;7.03;;;5.07;;
15706;SDS011;7953;54.302;10.128;2023-06-05T02:06:12;6.43;;;5.50;;
15706;SDS011;7953;54.302;10.128;2023-06-05T02:08:40;8.10;;;5.47;;
15706;SDS011;7953;54.302;10.128;2023-06-05T02:11:07;6.17;;;4.80;;
15706;SDS011;7953;54.302;10.128;2023-06-05T02:13:37;6.20;;;5.60;;
15706;SDS011;7953;54.302;10.128;2023-06-05T02:16:05;6.27;;;4.53;;
15706;SDS011;7953;54.302;10.128;2023-06-05T02:18:38;7.17;;;5.27;;
15706;SDS011;7953;54.302;10.128;2023-06-05T02:21:05;6.47;;;5.53;;
15706;SDS011;7953;54.302;10.128;2023-06-05T02:23:31;6.93;;;5.50;;
15706;SDS011;7953;54.302;10.128;2023-06-05T02:25:58;7.43;;;5.37;;
15706;SDS011;7953;54.302;10.128;2023-06-05T02:28:25;6.67;;;4.67;;
15706;SDS011;7953;54.302;10.128;2023-06-05T02:30:54;6.10;;;5.50;;
15706;SDS011;7953;54.302;10.128;2023-06-05T02:33:21;7.83;;;5.37;;
15706;SDS011;7953;54.302;10.128;2023-06-05T02:35:48;8.17;;;5.80;;
15706;SDS011;7953;54.302;10.128;2023-06-05T02:38:15;7.97;;;5.30;;
15706;SDS011;7953;54.302;10.128;2023-06-05T02:40:42;8.20;;;5.77;;
15706;SDS011;7953;54.302;10.128;2023-06-05T02:43:09;6.87;;;5.80;;
15706;SDS011;7953;54.302;10.128;2023-06-05T02:45:36;6.87;;;6.17;;
15706;SDS011;7953;54.302;10.128;2023-06-05T02:48:05;6.80;;;5.53;;
15706;SDS011;7953;54.302;10.128;2023-06-05T02:50:32;6.40;;;5.53;;
15706;SDS011;7953;54.302;10.128;2023-06-05T02:52:59;9.53;;;6.53;;
15706;SDS011;7953;54.302;10.128;2023-06-05T02:55:26;5.93;;;5.23;;
15706;SDS011;7953;54.302;10.128;2023-06-05T02:57:54;12.97;;;6.07;;
15706;SDS011;7953;54.302;10.128;2023-06-05T03:00:22;7.40;;;5.70;;
15706;SDS011;7953;54.302;10.128;2023-06-05T03:02:50;6.63;;;5.27;;
15706;SDS011;7953;54.302;10.128;2023-06-05T03:05:19;7.73;;;5.77;;
15706;SDS011;7953;54.302;10.128;2023-06-05T03:07:50;7.40;;;5.53;;
15706;SDS011;7953;54.302;10.128;2023-06-05T03:10:19;9.63;;;5.40;;
15706;SDS011;7953;54.302;10.128;2023-06-05T03:12:46;8.33;;;6.33;;
15706;SDS011;7953;54.302;10.128;2023-06-05T03:15:13;6.23;;;5.63;;
15706;SDS011;7953;54.302;10.128;2023-06-05T03:17:42;6.20;;;5.60;;
15706;SDS011;7953;54.302;10.128;2023-06-05T03:20:10;5.70;;;5.00;;
15706;SDS011;7953;54.302;10.128;2023-06-05T03:22:39;8.50;;;6.07;;
15706;SDS011;7953;54.302;10.128;2023-06-05T03:25:06;8.93;;;6.13;;
15706;SDS011;7953;54.302;10.128;2023-06-05T03:27:34;8.13;;;6.53;;
15706;SDS011;7953;54.302;10.128;2023-06-05T03:30:01;8.33;;;6.20;;
15706;SDS011;7953;54.302;10.128;2023-06-05T03:32:28;9.03;;;6.50;;
15706;SDS011;7953;54.302;10.128;2023-06-05T03:34:55;8.77;;;5.93;;
15706;SDS011;7953;54.302;10.128;2023-06-05T03:37:22;10.50;;;6.80;;
15706;SDS011;7953;54.302;10.128;2023-06-05T03:39:50;8.73;;;6.43;;
15706;SDS011;7953;54.302;10.128;2023-06-05T03:42:17;6.67;;;6.07;;
15706;SDS011;7953;54.302;10.128;2023-06-05T03:44:44;8.70;;;5.57;;
15706;SDS011;7953;54.302;10.128;2023-06-05T03:47:11;8.47;;;7.10;;
15706;SDS011;7953;54.302;10.128;2023-06-05T03:49:39;9.70;;;6.73;;
15706;SDS011;7953;54.302;10.128;2023-06-05T03:52:11;7.70;;;6.07;;
15706;SDS011;7953;54.302;10.128;2023-06-05T03:54:39;11.27;;;5.93;;
15706;SDS011;7953;54.302;10.128;2023-06-05T03:57:10;8.97;;;6.53;;
15706;SDS011;7953;54.302;10.128;2023-06-05T03:59:39;9.50;;;5.97;;
15706;SDS011;7953;54.302;10.128;2023-06-05T04:02:06;8.90;;;6.20;;
15706;SDS011;7953;54.302;10.128;2023-06-05T04:04:33;9.40;;;7.37;;
15706;SDS011;7953;54.302;10.128;2023-06-05T04:07:00;10.70;;;6.30;;
15706;SDS011;7953;54.302;10.128;2023-06-05T04:09:27;8.43;;;7.00;;
15706;SDS011;7953;54.302;10.128;2023-06-05T04:11:54;11.97;;;7.10;;
15706;SDS011;7953;54.302;10.128;2023-06-05T04:14:22;8.93;;;7.13;;
15706;SDS011;7953;54.302;10.128;2023-06-05T04:16:49;8.30;;;6.27;;
15706;SDS011;7953;54.302;10.128;2023-06-05T04:19:16;8.90;;;6.70;;
15706;SDS011;7953;54.302;10.128;2023-06-05T04:21:43;9.40;;;6.53;;
15706;SDS011;7953;54.302;10.128;2023-06-05T04:24:10;10.00;;;6.70;;
15706;SDS011;7953;54.302;10.128;2023-06-05T04:26:37;10.27;;;6.67;;
15706;SDS011;7953;54.302;10.128;2023-06-05T04:29:06;10.57;;;6.73;;
15706;SDS011;7953;54.302;10.128;2023-06-05T04:31:39;8.97;;;6.60;;
15706;SDS011;7953;54.302;10.128;2023-06-05T04:34:07;9.40;;;6.77;;
15706;SDS011;7953;54.302;10.128;2023-06-05T04:36:34;10.43;;;7.07;;
15706;SDS011;7953;54.302;10.128;2023-06-05T04:39:01;8.60;;;6.83;;
15706;SDS011;7953;54.302;10.128;2023-06-05T04:41:29;7.87;;;6.50;;
15706;SDS011;7953;54.302;10.128;2023-06-05T04:43:57;11.73;;;6.60;;
15706;SDS011;7953;54.302;10.128;2023-06-05T04:46:25;7.90;;;6.30;;
15706;SDS011;7953;54.302;10.128;2023-06-05T04:48:53;11.50;;;6.77;;
15706;SDS011;7953;54.302;10.128;2023-06-05T04:51:22;11.50;;;7.00;;
15706;SDS011;7953;54.302;10.128;2023-06-05T04:53:49;15.43;;;7.50;;
15706;SDS011;7953;54.302;10.128;2023-06-05T04:56:17;8.00;;;7.00;;
15706;SDS011;7953;54.302;10.128;2023-06-05T04:58:46;11.13;;;7.27;;
15706;SDS011;7953;54.302;10.128;2023-06-05T05:01:15;9.80;;;6.97;;
15706;SDS011;7953;54.302;10.128;2023-06-05T05:03:42;10.17;;;7.17;;
15706;SDS011;7953;54.302;10.128;2023-06-05T05:06:13;11.53;;;7.00;;
15706;SDS011;7953;54.302;10.128;2023-06-05T05:08:41;7.80;;;6.60;;
15706;SDS011;7953;54.302;10.128;2023-06-05T05:11:10;10.33;;;6.87;;
15706;SDS011;7953;54.302;10.128;2023-06-05T05:13:37;11.03;;;7.07;;
15706;SDS011;7953;54.302;10.128;2023-06-05T05:16:05;10.03;;;6.90;;
15706;SDS011;7953;54.302;10.128;2023-06-05T05:18:37;10.47;;;7.50;;
15706;SDS011;7953;54.302;10.128;2023-06-05T05:21:07;10.77;;;6.93;;
15706;SDS011;7953;54.302;10.128;2023-06-05T05:23:36;14.47;;;8.00;;
15706;SDS011;7953;54.302;10.128;2023-06-05T05:26:03;11.20;;;6.80;;
15706;SDS011;7953;54.302;10.128;2023-06-05T05:28:30;12.73;;;7.70;;
15706;SDS011;7953;54.302;10.128;2023-06-05T05:30:57;15.23;;;7.60;;
15706;SDS011;7953;54.302;10.128;2023-06-05T05:33:24;12.30;;;8.00;;
15706;SDS011;7953;54.302;10.128;2023-06-05T05:35:50;12.83;;;7.43;;
15706;SDS011;7953;54.302;10.128;2023-06-05T05:38:17;11.20;;;7.43;;
15706;SDS011;7953;54.302;10.128;2023-06-05T05:40:46;11.20;;;7.07;;
15706;SDS011;7953;54.302;10.128;2023-06-05T05:43:12;12.53;;;7.63;;
15706;SDS011;7953;54.302;10.128;2023-06-05T05:45:40;14.80;;;8.13;;
15706;SDS011;7953;54.302;10.128;2023-06-05T05:48:08;14.50;;;7.87;;
15706;SDS011;7953;54.302;10.128;2023-06-05T05:50:36;10.70;;;7.90;;
15706;SDS011;7953;54.302;10.128;2023-06-05T05:53:03;11.37;;;7.77;;
15706;SDS011;7953;54.302;10.128;2023-06-05T05:55:30;14.47;;;8.77;;
15706;SDS011;7953;54.302;10.128;2023-06-05T05:57:58;9.53;;;7.20;;
15706;SDS011;7953;54.302;10.128;2023-06-05T06:00:25;17.33;;;8.97;;
15706;SDS011;7953;54.302;10.128;2023-06-05T06:02:53;10.83;;;8.00;;
15706;SDS011;7953;54.302;10.128;2023-06-05T06:05:20;13.03;;;7.33;;
15706;SDS011;7953;54.302;10.128;2023-06-05T06:07:47;15.30;;;8.43;;
15706;SDS011;7953;54.302;10.128;2023-06-05T06:10:14;11.47;;;7.43;;
15706;SDS011;7953;54.302;10.128;2023-06-05T06:12:41;10.97;;;8.30;;
15706;SDS011;7953;54.302;10.128;2023-06-05T06:15:10;25.57;;;9.60;;
15706;SDS011;7953;54.302;10.128;2023-06-05T06:17:37;12.57;;;7.87;;
15706;SDS011;7953;54.302;10.128;2023-06-05T06:20:05;39.07;;;9.10;;
15706;SDS011;7953;54.302;10.128;2023-06-05T06:22:37;137.60;;;16.57;;
15706;SDS011;7953;54.302;10.128;2023-06-05T06:25:05;14.67;;;8.57;;
15706;SDS011;7953;54.302;10.128;2023-06-05T06:27:32;11.27;;;8.50;;
15706;SDS011;7953;54.302;10.128;2023-06-05T06:29:59;12.40;;;8.37;;
15706;SDS011;7953;54.302;10.128;2023-06-05T06:32:27;13.20;;;7.77;;
15706;SDS011;7953;54.302;10.128;2023-06-05T06:34:54;10.83;;;7.00;;
15706;SDS011;7953;54.302;10.128;2023-06-05T06:37:22;13.97;;;7.83;;
15706;SDS011;7953;54.302;10.128;2023-06-05T06:39:49;12.57;;;6.60;;
15706;SDS011;7953;54.302;10.128;2023-06-05T06:42:16;11.57;;;7.70;;
15706;SDS011;7953;54.302;10.128;2023-06-05T06:44:44;14.60;;;7.73;;
15706;SDS011;7953;54.302;10.128;2023-06-05T06:47:11;14.23;;;7.60;;
15706;SDS011;7953;54.302;10.128;2023-06-05T06:49:40;9.80;;;6.33;;
15706;SDS011;7953;54.302;10.128;2023-06-05T06:52:06;12.90;;;7.10;;
15706;SDS011;7953;54.302;10.128;2023-06-05T06:54:33;11.77;;;7.03;;
15706;SDS011;7953;54.302;10.128;2023-06-05T06:57:00;20.50;;;7.60;;
15706;SDS011;7953;54.302;10.128;2023-06-05T06:59:27;8.17;;;6.27;;
15706;SDS011;7953;54.302;10.128;2023-06-05T07:02:10;11.53;;;6.87;;
15706;SDS011;7953;54.302;10.128;2023-06-05T07:04:40;11.17;;;6.60;;
15706;SDS011;7953;54.302;10.128;2023-06-05T07:07:08;9.67;;;6.37;;
15706;SDS011;7953;54.302;10.128;2023-06-05T07:09:37;9.57;;;6.47;;
15706;SDS011;7953;54.302;10.128;2023-06-05T07:12:04;9.47;;;6.83;;
15706;SDS011;7953;54.302;10.128;2023-06-05T07:14:32;9.80;;;5.33;;
15706;SDS011;7953;54.302;10.128;2023-06-05T07:16:59;8.67;;;6.00;;
15706;SDS011;7953;54.302;10.128;2023-06-05T07:19:26;8.73;;;6.23;;
15706;SDS011;7953;54.302;10.128;2023-06-05T07:21:55;9.13;;;6.20;;
15706;SDS011;7953;54.302;10.128;2023-06-05T07:24:23;10.87;;;5.83;;
15706;SDS011;7953;54.302;10.128;2023-06-05T07:26:51;7.63;;;5.57;;
15706;SDS011;7953;54.302;10.128;2023-06-05T07:29:20;6.10;;;5.17;;
15706;SDS011;7953;54.302;10.128;2023-06-05T07:31:47;7.93;;;5.30;;
15706;SDS011;7953;54.302;10.128;2023-06-05T07:34:14;7.50;;;5.77;;
15706;SDS011;7953;54.302;10.128;2023-06-05T07:36:44;8.07;;;5.53;;
15706;SDS011;7953;54.302;10.128;2023-06-05T07:39:14;8.80;;;5.60;;
15706;SDS011;7953;54.302;10.128;2023-06-05T07:41:41;11.47;;;6.13;;
15706;SDS011;7953;54.302;10.128;2023-06-05T07:44:08;14.27;;;5.73;;
15706;SDS011;7953;54.302;10.128;2023-06-05T07:46:36;7.47;;;5.43;;
15706;SDS011;7953;54.302;10.128;2023-06-05T07:49:03;10.87;;;5.73;;
15706;SDS011;7953;54.302;10.128;2023-06-05T07:51:30;7.70;;;4.60;;
15706;SDS011;7953;54.302;10.128;2023-06-05T07:54:00;7.57;;;4.83;;
15706;SDS011;7953;54.302;10.128;2023-06-05T07:56:29;5.67;;;4.83;;
15706;SDS011;7953;54.302;10.128;2023-06-05T07:58:58;7.30;;;4.87;;
15706;SDS011;7953;54.302;10.128;2023-06-05T08:01:25;5.83;;;4.67;;
15706;SDS011;7953;54.302;10.128;2023-06-05T08:03:52;9.47;;;6.33;;
15706;SDS011;7953;54.302;10.128;2023-06-05T08:06:19;8.87;;;5.13;;
15706;SDS011;7953;54.302;10.128;2023-06-05T08:08:46;7.00;;;5.07;;
15706;SDS011;7953;54.302;10.128;2023-06-05T08:11:13;5.30;;;4.77;;
15706;SDS011;7953;54.302;10.128;2023-06-05T08:13:41;6.87;;;4.83;;
15706;SDS011;7953;54.302;10.128;2023-06-05T08:16:08;8.07;;;4.73;;
15706;SDS011;7953;54.302;10.128;2023-06-05T08:18:35;7.67;;;4.93;;
15706;SDS011;7953;54.302;10.128;2023-06-05T08:21:02;6.33;;;5.17;;
15706;SDS011;7953;54.302;10.128;2023-06-05T08:23:29;7.63;;;4.63;;
15706;SDS011;7953;54.302;10.128;2023-06-05T08:25:56;7.20;;;5.20;;
15706;SDS011;7953;54.302;10.128;2023-06-05T08:28:23;6.77;;;4.93;;
15706;SDS011;7953;54.302;10.128;2023-06-05T08:30:51;6.70;;;4.30;;
15706;SDS011;7953;54.302;10.128;2023-06-05T08:33:18;9.20;;;5.50;;
15706;SDS011;7953;54.302;10.128;2023-06-05T08:35:46;8.20;;;4.17;;
15706;SDS011;7953;54.302;10.128;2023-06-05T08:38:13;7.67;;;4.63;;
15706;SDS011;7953;54.302;10.128;2023-06-05T08:40:40;7.40;;;5.30;;
15706;SDS011;7953;54.302;10.128;2023-06-05T08:43:10;8.67;;;5.00;;
15706;SDS011;7953;54.302;10.128;2023-06-05T08:45:37;8.57;;;4.93;;
15706;SDS011;7953;54.302;10.128;2023-06-05T08:48:05;6.73;;;5.40;;
15706;SDS011;7953;54.302;10.128;2023-06-05T08:50:35;6.67;;;4.30;;
15706;SDS011;7953;54.302;10.128;2023-06-05T08:53:04;7.53;;;4.67;;
15706;SDS011;7953;54.302;10.128;2023-06-05T08:55:32;7.53;;;4.30;;
15706;SDS011;7953;54.302;10.128;2023-06-05T08:57:59;6.03;;;4.10;;
15706;SDS011;7953;54.302;10.128;2023-06-05T09:00:28;7.23;;;4.03;;
15706;SDS011;7953;54.302;10.128;2023-06-05T09:02:55;8.85;;;4.13;;
15706;SDS011;7953;54.302;10.128;2023-06-05T09:05:24;5.10;;;3.85;;
15706;SDS011;7953;54.302;10.128;2023-06-05T09:07:51;5.80;;;3.83;;
15706;SDS011;7953;54.302;10.128;2023-06-05T09:10:22;8.05;;;4.38;;
15706;SDS011;7953;54.302;10.128;2023-06-05T09:12:53;5.38;;;4.28;;
15706;SDS011;7953;54.302;10.128;2023-06-05T09:15:21;4.93;;;4.43;;
15706;SDS011;7953;54.302;10.128;2023-06-05T09:18:01;8.25;;;3.72;;
15706;SDS011;7953;54.302;10.128;2023-06-05T09:20:31;6.78;;;4.53;;
15706;SDS011;7953;54.302;10.128;2023-06-05T09:23:00;12.55;;;4.45;;
15706;SDS011;7953;54.302;10.128;2023-06-05T09:25:30;6.40;;;4.00;;
15706;SDS011;7953;54.302;10.128;2023-06-05T09:28:13;5.78;;;4.10;;
15706;SDS011;7953;54.302;10.128;2023-06-05T09:30:53;6.07;;;3.80;;
15706;SDS011;7953;54.302;10.128;2023-06-05T09:33:21;6.32;;;4.13;;
15706;SDS011;7953;54.302;10.128;2023-06-05T09:36:02;5.80;;;3.85;;
15706;SDS011;7953;54.302;10.128;2023-06-05T09:38:30;6.03;;;4.10;;
15706;SDS011;7953;54.302;10.128;2023-06-05T09:41:03;5.13;;;3.78;;
15706;SDS011;7953;54.302;10.128;2023-06-05T09:43:31;4.03;;;3.20;;
15706;SDS011;7953;54.302;10.128;2023-06-05T09:45:59;4.40;;;3.58;;
15706;SDS011;7953;54.302;10.128;2023-06-05T09:48:31;6.05;;;4.00;;
15706;SDS011;7953;54.302;10.128;2023-06-05T09:51:07;6.25;;;3.78;;
15706;SDS011;7953;54.302;10.128;2023-06-05T09:53:35;10.98;;;4.40;;
15706;SDS011;7953;54.302;10.128;2023-06-05T09:56:06;5.78;;;3.72;;
15706;SDS011;7953;54.302;10.128;2023-06-05T09:58:37;9.85;;;4.35;;
15706;SDS011;7953;54.302;10.128;2023-06-05T10:01:04;7.30;;;3.78;;
15706;SDS011;7953;54.302;10.128;2023-06-05T10:03:34;5.53;;;3.55;;
15706;SDS011;7953;54.302;10.128;2023-06-05T10:06:03;7.13;;;4.10;;
15706;SDS011;7953;54.302;10.128;2023-06-05T10:08:33;6.97;;;3.90;;
15706;SDS011;7953;54.302;10.128;2023-06-05T10:11:01;4.32;;;3.38;;
15706;SDS011;7953;54.302;10.128;2023-06-05T10:13:29;5.63;;;3.80;;
15706;SDS011;7953;54.302;10.128;2023-06-05T10:15:57;8.90;;;4.07;;
15706;SDS011;7953;54.302;10.128;2023-06-05T10:18:26;4.35;;;3.47;;
15706;SDS011;7953;54.302;10.128;2023-06-05T10:20:53;8.82;;;4.45;;
15706;SDS011;7953;54.302;10.128;2023-06-05T10:23:23;5.43;;;3.60;;
15706;SDS011;7953;54.302;10.128;2023-06-05T10:25:52;9.77;;;3.90;;
15706;SDS011;7953;54.302;10.128;2023-06-05T10:28:29;7.85;;;4.30;;
15706;SDS011;7953;54.302;10.128;2023-06-05T10:31:13;5.68;;;3.63;;
15706;SDS011;7953;54.302;10.128;2023-06-05T10:33:58;5.85;;;4.00;;
15706;SDS011;7953;54.302;10.128;2023-06-05T10:36:42;5.97;;;4.00;;
15706;SDS011;7953;54.302;10.128;2023-06-05T10:39:21;6.00;;;3.72;;
15706;SDS011;7953;54.302;10.128;2023-06-05T10:41:50;7.18;;;4.10;;
15706;SDS011;7953;54.302;10.128;2023-06-05T10:44:17;7.93;;;3.80;;
15706;SDS011;7953;54.302;10.128;2023-06-05T10:46:44;6.28;;;4.13;;
15706;SDS011;7953;54.302;10.128;2023-06-05T10:49:12;7.40;;;3.83;;
15706;SDS011;7953;54.302;10.128;2023-06-05T10:51:41;7.15;;;3.40;;
15706;SDS011;7953;54.302;10.128;2023-06-05T10:54:09;4.50;;;3.55;;
15706;SDS011;7953;54.302;10.128;2023-06-05T10:59:25;5.90;;;3.28;;
15706;SDS011;7953;54.302;10.128;2023-06-05T11:02:21;6.65;;;3.50;;
15706;SDS011;7953;54.302;10.128;2023-06-05T11:05:04;6.55;;;4.18;;
15706;SDS011;7953;54.302;10.128;2023-06-05T11:07:33;5.00;;;3.85;;
15706;SDS011;7953;54.302;10.128;2023-06-05T11:13:03;5.68;;;3.78;;
15706;SDS011;7953;54.302;10.128;2023-06-05T11:15:39;4.55;;;3.50;;
15706;SDS011;7953;54.302;10.128;2023-06-05T11:18:26;5.78;;;3.67;;
15706;SDS011;7953;54.302;10.128;2023-06-05T11:20:57;6.93;;;4.00;;
15706;SDS011;7953;54.302;10.128;2023-06-05T11:23:26;6.97;;;3.40;;
15706;SDS011;7953;54.302;10.128;2023-06-05T11:25:54;4.75;;;3.00;;
15706;SDS011;7953;54.302;10.128;2023-06-05T11:28:41;5.05;;;3.20;;
15706;SDS011;7953;54.302;10.128;2023-06-05T11:31:09;5.85;;;3.20;;
15706;SDS011;7953;54.302;10.128;2023-06-05T11:33:36;7.22;;;3.20;;
15706;SDS011;7953;54.302;10.128;2023-06-05T11:36:04;7.28;;;3.65;;
15706;SDS011;7953;54.302;10.128;2023-06-05T11:38:33;7.95;;;3.70;;
15706;SDS011;7953;54.302;10.128;2023-06-05T11:41:04;5.53;;;3.22;;
15706;SDS011;7953;54.302;10.128;2023-06-05T11:43:32;11.85;;;3.55;;
15706;SDS011;7953;54.302;10.128;2023-06-05T11:46:08;6.05;;;3.40;;
15706;SDS011;7953;54.302;10.128;2023-06-05T11:48:37;5.68;;;3.60;;
15706;SDS011;7953;54.302;10.128;2023-06-05T11:51:09;5.07;;;3.42;;
15706;SDS011;7953;54.302;10.128;2023-06-05T11:53:42;6.13;;;2.97;;
15706;SDS011;7953;54.302;10.128;2023-06-05T11:56:12;6.28;;;3.63;;
15706;SDS011;7953;54.302;10.128;2023-06-05T11:58:41;5.57;;;3.92;;
15706;SDS011;7953;54.302;10.128;2023-06-05T12:01:11;10.75;;;4.25;;
15706;SDS011;7953;54.302;10.128;2023-06-05T12:03:42;6.68;;;3.97;;
15706;SDS011;7953;54.302;10.128;2023-06-05T12:06:10;3.50;;;3.17;;
15706;SDS011;7953;54.302;10.128;2023-06-05T12:08:38;7.00;;;2.83;;
15706;SDS011;7953;54.302;10.128;2023-06-05T12:11:18;4.13;;;3.47;;
15706;SDS011;7953;54.302;10.128;2023-06-05T12:13:48;5.07;;;3.58;;
15706;SDS011;7953;54.302;10.128;2023-06-05T12:16:17;5.85;;;3.67;;
15706;SDS011;7953;54.302;10.128;2023-06-05T12:18:45;5.65;;;3.42;;
15706;SDS011;7953;54.302;10.128;2023-06-05T12:21:20;7.22;;;3.33;;
15706;SDS011;7953;54.302;10.128;2023-06-05T12:23:48;9.23;;;3.30;;
15706;SDS011;7953;54.302;10.128;2023-06-05T12:26:15;4.93;;;3.35;;
15706;SDS011;7953;54.302;10.128;2023-06-05T12:28:42;5.85;;;3.47;;
15706;SDS011;7953;54.302;10.128;2023-06-05T12:31:10;5.57;;;3.53;;
15706;SDS011;7953;54.302;10.128;2023-06-05T12:33:56;4.90;;;3.63;;
15706;SDS011;7953;54.302;10.128;2023-06-05T12:36:23;4.72;;;2.95;;
15706;SDS011;7953;54.302;10.128;2023-06-05T12:38:50;5.45;;;3.38;;
15706;SDS011;7953;54.302;10.128;2023-06-05T12:41:17;5.68;;;3.25;;
15706;SDS011;7953;54.302;10.128;2023-06-05T12:43:45;6.88;;;3.33;;
15706;SDS011;7953;54.302;10.128;2023-06-05T12:46:11;8.20;;;3.50;;
15706;SDS011;7953;54.302;10.128;2023-06-05T12:48:38;4.63;;;3.05;;
15706;SDS011;7953;54.302;10.128;2023-06-05T12:51:06;6.10;;;3.28;;
15706;SDS011;7953;54.302;10.128;2023-06-05T12:53:33;5.90;;;3.10;;
15706;SDS011;7953;54.302;10.128;2023-06-05T12:56:00;4.22;;;2.83;;
15706;SDS011;7953;54.302;10.128;2023-06-05T12:58:27;6.18;;;3.20;;
15706;SDS011;7953;54.302;10.128;2023-06-05T13:00:54;5.93;;;2.75;;
15706;SDS011;7953;54.302;10.128;2023-06-05T13:03:21;5.18;;;3.13;;
15706;SDS011;7953;54.302;10.128;2023-06-05T13:05:48;4.68;;;3.05;;
15706;SDS011;7953;54.302;10.128;2023-06-05T13:08:17;8.93;;;2.97;;
15706;SDS011;7953;54.302;10.128;2023-06-05T13:10:44;5.05;;;2.92;;
15706;SDS011;7953;54.302;10.128;2023-06-05T13:13:10;4.82;;;3.42;;
15706;SDS011;7953;54.302;10.128;2023-06-05T13:15:37;8.25;;;3.70;;
15706;SDS011;7953;54.302;10.128;2023-06-05T13:18:04;5.43;;;3.17;;
15706;SDS011;7953;54.302;10.128;2023-06-05T13:20:32;5.18;;;2.92;;
15706;SDS011;7953;54.302;10.128;2023-06-05T13:23:00;7.07;;;3.08;;
15706;SDS011;7953;54.302;10.128;2023-06-05T13:25:28;6.25;;;3.35;;
15706;SDS011;7953;54.302;10.128;2023-06-05T13:27:55;4.20;;;2.83;;
15706;SDS011;7953;54.302;10.128;2023-06-05T13:30:22;10.43;;;7.93;;
15706;SDS011;7953;54.302;10.128;2023-06-05T13:32:49;9.70;;;4.75;;
15706;SDS011;7953;54.302;10.128;2023-06-05T13:35:19;6.13;;;3.85;;
15706;SDS011;7953;54.302;10.128;2023-06-05T13:37:46;4.38;;;2.95;;
15706;SDS011;7953;54.302;10.128;2023-06-05T13:40:14;5.05;;;3.15;;
15706;SDS011;7953;54.302;10.128;2023-06-05T13:42:43;4.82;;;3.08;;
15706;SDS011;7953;54.302;10.128;2023-06-05T13:45:10;4.93;;;2.95;;
15706;SDS011;7953;54.302;10.128;2023-06-05T13:47:37;2.88;;;2.60;;
15706;SDS011;7953;54.302;10.128;2023-06-05T13:50:04;4.32;;;3.15;;
15706;SDS011;7953;54.302;10.128;2023-06-05T13:52:32;4.20;;;2.55;;
15706;SDS011;7953;54.302;10.128;2023-06-05T13:54:58;4.53;;;2.80;;
15706;SDS011;7953;54.302;10.128;2023-06-05T13:57:25;4.57;;;3.15;;
15706;SDS011;7953;54.302;10.128;2023-06-05T13:59:54;9.95;;;3.10;;
15706;SDS011;7953;54.302;10.128;2023-06-05T14:02:21;6.63;;;2.95;;
15706;SDS011;7953;54.302;10.128;2023-06-05T14:04:48;4.68;;;2.65;;
15706;SDS011;7953;54.302;10.128;2023-06-05T14:07:15;5.63;;;2.95;;
15706;SDS011;7953;54.302;10.128;2023-06-05T14:09:42;5.18;;;2.70;;
15706;SDS011;7953;54.302;10.128;2023-06-05T14:12:09;4.35;;;2.55;;
15706;SDS011;7953;54.302;10.128;2023-06-05T14:14:36;7.45;;;3.20;;
15706;SDS011;7953;54.302;10.128;2023-06-05T14:17:04;8.38;;;2.78;;
15706;SDS011;7953;54.302;10.128;2023-06-05T14:19:32;4.10;;;2.90;;
15706;SDS011;7953;54.302;10.128;2023-06-05T14:21:58;3.95;;;2.50;;
15706;SDS011;7953;54.302;10.128;2023-06-05T14:24:25;7.28;;;3.10;;
15706;SDS011;7953;54.302;10.128;2023-06-05T14:26:52;7.60;;;3.03;;
15706;SDS011;7953;54.302;10.128;2023-06-05T14:29:20;7.28;;;3.08;;
15706;SDS011;7953;54.302;10.128;2023-06-05T14:31:47;4.50;;;2.70;;
15706;SDS011;7953;54.302;10.128;2023-06-05T14:34:15;3.72;;;2.72;;
15706;SDS011;7953;54.302;10.128;2023-06-05T14:36:42;10.10;;;3.30;;
15706;SDS011;7953;54.302;10.128;2023-06-05T14:39:15;6.13;;;2.90;;
15706;SDS011;7953;54.302;10.128;2023-06-05T14:41:43;5.75;;;2.72;;
15706;SDS011;7953;54.302;10.128;2023-06-05T14:44:10;5.97;;;2.60;;
15706;SDS011;7953;54.302;10.128;2023-06-05T14:46:37;4.50;;;2.90;;
15706;SDS011;7953;54.302;10.128;2023-06-05T14:49:04;5.10;;;2.60;;
15706;SDS011;7953;54.302;10.128;2023-06-05T14:51:32;7.35;;;2.90;;
15706;SDS011;7953;54.302;10.128;2023-06-05T14:53:59;3.85;;;2.47;;
15706;SDS011;7953;54.302;10.128;2023-06-05T14:56:26;7.13;;;2.72;;
15706;SDS011;7953;54.302;10.128;2023-06-05T14:58:53;13.93;;;3.05;;
15706;SDS011;7953;54.302;10.128;2023-06-05T15:01:20;2.75;;;2.05;;